createdAt,value
2018-02-20T00:01:24.398Z,1.40
2018-02-20T00:03:51.855Z,1.40
2018-02-20T00:06:19.314Z,1.40
2018-02-20T00:08:46.767Z,1.40
2018-02-20T00:11:14.221Z,1.40
2018-02-20T00:13:41.686Z,1.40
2018-02-20T00:16:09.167Z,1.50
2018-02-20T00:18:36.615Z,1.50
2018-02-20T00:21:04.077Z,1.50
2018-02-20T00:23:31.530Z,1.50
2018-02-20T00:25:58.990Z,1.50
2018-02-20T00:28:26.476Z,1.50
2018-02-20T00:30:54.698Z,1.50
2018-02-20T00:33:22.150Z,1.50
2018-02-20T00:35:49.608Z,1.50
2018-02-20T00:38:17.061Z,1.50
2018-02-20T00:40:44.522Z,1.60
2018-02-20T00:43:11.977Z,1.60
2018-02-20T00:45:39.434Z,1.60
2018-02-20T00:48:06.896Z,1.60
2018-02-20T00:50:34.354Z,1.60
2018-02-20T00:53:01.806Z,1.60
2018-02-20T00:55:29.280Z,1.60
2018-02-20T00:57:56.730Z,1.60
2018-02-20T01:00:24.201Z,1.60
2018-02-20T01:02:51.704Z,1.60
2018-02-20T01:05:19.162Z,1.60
2018-02-20T01:07:46.623Z,1.60
2018-02-20T01:10:14.082Z,1.60
2018-02-20T01:12:41.541Z,1.60
2018-02-20T01:15:08.997Z,1.60
2018-02-20T01:17:36.457Z,1.60
2018-02-20T01:20:04.012Z,1.60
2018-02-20T01:22:31.470Z,1.50
2018-02-20T01:24:58.932Z,1.60
2018-02-20T01:27:26.394Z,1.60
2018-02-20T01:29:53.861Z,1.50
2018-02-20T01:32:21.566Z,1.60
2018-02-20T01:34:49.032Z,1.60
2018-02-20T01:37:16.492Z,1.60
2018-02-20T01:39:43.949Z,1.60
2018-02-20T01:42:11.421Z,1.60
2018-02-20T01:44:38.873Z,1.60
2018-02-20T01:47:06.345Z,1.60
2018-02-20T01:49:33.798Z,1.60
2018-02-20T01:52:01.253Z,1.60
2018-02-20T01:54:28.701Z,1.60
2018-02-20T01:56:56.173Z,1.50
2018-02-20T01:59:23.617Z,1.50
2018-02-20T02:01:51.078Z,1.50
2018-02-20T02:04:18.538Z,1.50
2018-02-20T02:06:45.989Z,1.50
2018-02-20T02:09:13.452Z,1.50
2018-02-20T02:11:40.913Z,1.50
2018-02-20T02:14:08.361Z,1.50
2018-02-20T02:16:35.822Z,1.40
2018-02-20T02:19:03.282Z,1.40
2018-02-20T02:21:30.771Z,1.40
2018-02-20T02:23:58.222Z,1.40
2018-02-20T02:26:25.681Z,1.40
2018-02-20T02:28:53.194Z,1.40
2018-02-20T02:31:20.650Z,1.40
2018-02-20T02:33:48.110Z,1.40
2018-02-20T02:36:15.558Z,1.40
2018-02-20T02:38:43.021Z,1.40
2018-02-20T02:41:10.474Z,1.50
2018-02-20T02:43:37.935Z,1.50
2018-02-20T02:46:05.390Z,1.50
2018-02-20T02:48:32.846Z,1.50
2018-02-20T02:51:01.117Z,1.50
2018-02-20T02:53:28.593Z,1.50
2018-02-20T02:55:56.050Z,1.50
2018-02-20T02:58:23.513Z,1.50
2018-02-20T03:00:50.986Z,1.50
2018-02-20T03:03:18.442Z,1.40
2018-02-20T03:05:45.898Z,1.40
2018-02-20T03:08:13.385Z,1.40
2018-02-20T03:10:40.837Z,1.40
2018-02-20T03:13:08.293Z,1.40
2018-02-20T03:15:35.744Z,1.40
2018-02-20T03:18:03.201Z,1.40
2018-02-20T03:20:30.649Z,1.40
2018-02-20T03:22:58.106Z,1.40
2018-02-20T03:25:25.557Z,1.30
2018-02-20T03:27:53.018Z,1.30
2018-02-20T03:30:20.477Z,1.30
2018-02-20T03:32:47.941Z,1.30
2018-02-20T03:35:15.398Z,1.30
2018-02-20T03:37:42.862Z,1.30
2018-02-20T03:40:10.397Z,1.20
2018-02-20T03:42:37.869Z,1.30
2018-02-20T03:45:05.322Z,1.30
2018-02-20T03:47:32.804Z,1.30
2018-02-20T03:50:01.018Z,1.30
2018-02-20T03:52:28.482Z,1.30
2018-02-20T03:54:55.938Z,1.30
2018-02-20T03:57:23.391Z,1.20
2018-02-20T03:59:50.854Z,1.20
2018-02-20T04:02:18.306Z,1.20
2018-02-20T04:04:45.774Z,1.20
2018-02-20T04:07:13.229Z,1.30
2018-02-20T04:09:40.697Z,1.30
2018-02-20T04:12:08.931Z,1.30
2018-02-20T04:14:36.388Z,1.30
2018-02-20T04:17:03.862Z,1.30
2018-02-20T04:19:31.337Z,1.30
2018-02-20T04:21:58.797Z,1.30
2018-02-20T04:24:26.328Z,1.30
2018-02-20T04:26:53.782Z,1.30
2018-02-20T04:29:21.249Z,1.30
2018-02-20T04:31:49.553Z,1.30
2018-02-20T04:34:17.023Z,1.20
2018-02-20T04:36:44.534Z,1.30
2018-02-20T04:39:11.990Z,1.30
2018-02-20T04:41:39.446Z,1.30
2018-02-20T04:44:06.914Z,1.20
2018-02-20T04:46:34.377Z,1.30
2018-02-20T04:49:01.854Z,1.20
2018-02-20T04:51:29.329Z,1.20
2018-02-20T04:53:57.571Z,1.20
2018-02-20T04:56:25.030Z,1.20
2018-02-20T04:58:52.498Z,1.20
2018-02-20T05:01:19.975Z,1.20
2018-02-20T05:03:47.427Z,1.30
2018-02-20T05:06:14.877Z,1.20
2018-02-20T05:08:42.337Z,1.30
2018-02-20T05:11:10.557Z,1.20
2018-02-20T05:13:38.029Z,1.20
2018-02-20T05:16:05.477Z,1.20
2018-02-20T05:18:32.941Z,1.20
2018-02-20T05:21:00.417Z,1.20
2018-02-20T05:23:27.886Z,1.20
2018-02-20T05:25:55.343Z,1.30
2018-02-20T05:28:22.822Z,1.30
2018-02-20T05:30:51.038Z,1.30
2018-02-20T05:33:18.505Z,1.30
2018-02-20T05:35:45.952Z,1.30
2018-02-20T05:38:13.405Z,1.20
2018-02-20T05:40:40.865Z,1.20
2018-02-20T05:43:09.318Z,1.30
2018-02-20T05:45:36.773Z,1.20
2018-02-20T05:48:04.225Z,1.20
2018-02-20T05:50:31.686Z,1.20
2018-02-20T05:52:59.132Z,1.20
2018-02-20T05:55:26.585Z,1.10
2018-02-20T05:57:54.079Z,1.10
2018-02-20T06:00:21.491Z,1.10
2018-02-20T06:02:49.712Z,1.10
2018-02-20T06:05:17.189Z,1.10
2018-02-20T06:07:44.649Z,1.10
2018-02-20T06:10:12.105Z,1.10
2018-02-20T06:12:39.554Z,1.10
2018-02-20T06:15:07.033Z,1.10
2018-02-20T06:17:34.490Z,1.10
2018-02-20T06:20:01.949Z,1.10
2018-02-20T06:22:29.406Z,1.10
2018-02-20T06:24:56.857Z,1.10
2018-02-20T06:27:25.341Z,1.20
2018-02-20T06:29:52.880Z,1.10
2018-02-20T06:32:20.378Z,1.20
2018-02-20T06:34:48.597Z,1.20
2018-02-20T06:37:16.052Z,1.20
2018-02-20T06:39:43.510Z,1.10
2018-02-20T06:42:10.966Z,1.20
2018-02-20T06:44:38.426Z,1.20
2018-02-20T06:47:05.891Z,1.20
2018-02-20T06:49:34.132Z,1.20
2018-02-20T06:52:01.579Z,1.20
2018-02-20T06:54:29.029Z,1.20
2018-02-20T06:56:57.357Z,1.20
2018-02-20T06:59:24.820Z,1.20
2018-02-20T07:01:52.269Z,1.30
2018-02-20T07:04:19.746Z,1.30
2018-02-20T07:06:47.201Z,1.30
2018-02-20T07:09:14.647Z,1.30
2018-02-20T07:11:42.102Z,1.30
2018-02-20T07:14:09.553Z,1.30
2018-02-20T07:16:37.011Z,1.30
2018-02-20T07:19:04.496Z,1.30
2018-02-20T07:21:31.981Z,1.30
2018-02-20T07:23:59.430Z,1.30
2018-02-20T07:26:27.658Z,1.20
2018-02-20T07:28:55.110Z,1.20
2018-02-20T07:31:22.574Z,1.20
2018-02-20T07:33:50.024Z,1.20
2018-02-20T07:36:17.481Z,1.20
2018-02-20T07:38:44.942Z,1.20
2018-02-20T07:41:13.171Z,1.30
2018-02-20T07:43:40.617Z,1.20
2018-02-20T07:46:08.841Z,1.20
2018-02-20T07:48:36.296Z,1.20
2018-02-20T07:51:03.765Z,1.20
2018-02-20T07:53:31.234Z,1.20
2018-02-20T07:55:58.706Z,1.20
2018-02-20T07:58:26.149Z,1.20
2018-02-20T08:00:53.613Z,1.20
2018-02-20T08:03:21.064Z,1.20
2018-02-20T08:05:48.516Z,1.30
2018-02-20T08:08:15.976Z,1.30
2018-02-20T08:10:43.468Z,1.30
2018-02-20T08:13:10.950Z,1.30
2018-02-20T08:15:38.408Z,1.30
2018-02-20T08:18:05.858Z,1.30
2018-02-20T08:20:33.318Z,1.30
2018-02-20T08:23:00.774Z,1.40
2018-02-20T08:25:28.234Z,1.40
2018-02-20T08:27:55.690Z,1.40
2018-02-20T08:30:23.151Z,1.40
2018-02-20T08:32:50.610Z,1.50
2018-02-20T08:35:18.077Z,1.50
2018-02-20T08:37:45.532Z,1.50
2018-02-20T08:40:13.010Z,1.60
2018-02-20T08:42:40.456Z,1.50
2018-02-20T08:45:07.925Z,1.50
2018-02-20T08:47:35.385Z,1.50
2018-02-20T08:50:02.860Z,1.60
2018-02-20T08:52:31.109Z,1.60
2018-02-20T08:54:58.560Z,1.50
2018-02-20T08:57:26.017Z,1.60
2018-02-20T08:59:53.482Z,1.50
2018-02-20T09:02:20.946Z,1.60
2018-02-20T09:04:48.397Z,1.60
2018-02-20T09:07:15.864Z,1.70
2018-02-20T09:09:43.322Z,1.70
2018-02-20T09:12:10.782Z,1.80
2018-02-20T09:14:38.234Z,1.80
2018-02-20T09:17:05.693Z,1.80
2018-02-20T09:19:33.913Z,1.80
2018-02-20T09:22:01.378Z,1.80
2018-02-20T09:24:28.829Z,1.80
2018-02-20T09:26:56.283Z,1.80
2018-02-20T09:29:23.729Z,1.90
2018-02-20T09:31:51.532Z,1.90
2018-02-20T09:34:18.985Z,1.90
2018-02-20T09:36:46.445Z,1.90
2018-02-20T09:39:13.905Z,1.90
2018-02-20T09:41:41.360Z,2.00
2018-02-20T09:44:09.578Z,2.00
2018-02-20T09:46:38.505Z,2.00
2018-02-20T09:49:05.953Z,2.00
2018-02-20T09:51:33.410Z,2.10
2018-02-20T09:54:00.870Z,2.10
2018-02-20T09:56:28.333Z,2.10
2018-02-20T09:58:55.813Z,2.10
2018-02-20T10:01:23.278Z,2.10
2018-02-20T10:03:50.734Z,2.20
2018-02-20T10:06:18.190Z,2.20
2018-02-20T10:08:45.643Z,2.20
2018-02-20T10:11:13.094Z,2.20
2018-02-20T10:13:40.618Z,2.20
2018-02-20T10:16:08.059Z,2.30
2018-02-20T10:18:35.631Z,2.30
2018-02-20T10:21:03.081Z,2.40
2018-02-20T10:23:30.650Z,2.40
2018-02-20T10:25:58.099Z,2.50
2018-02-20T10:28:25.565Z,2.50
2018-02-20T10:30:53.048Z,2.50
2018-02-20T10:33:20.520Z,2.50
2018-02-20T10:35:48.034Z,2.50
2018-02-20T10:38:15.591Z,2.50
2018-02-20T10:40:43.042Z,2.50
2018-02-20T10:43:10.497Z,2.50
2018-02-20T10:45:37.944Z,2.60
2018-02-20T10:48:05.400Z,2.60
2018-02-20T10:50:32.852Z,2.70
2018-02-20T10:53:00.305Z,2.70
2018-02-20T10:55:28.530Z,2.70
2018-02-20T10:57:56.003Z,2.70
2018-02-20T11:00:23.462Z,2.80
2018-02-20T11:02:50.923Z,2.80
2018-02-20T11:05:18.418Z,2.90
2018-02-20T11:07:45.941Z,2.90
2018-02-20T11:10:13.414Z,2.90
2018-02-20T11:12:41.646Z,2.90
2018-02-20T11:15:09.110Z,2.90
2018-02-20T11:17:36.619Z,2.90
2018-02-20T11:20:04.090Z,2.90
2018-02-20T11:22:31.553Z,2.90
2018-02-20T11:24:59.417Z,3.00
2018-02-20T11:27:26.876Z,3.00
2018-02-20T11:29:54.328Z,3.00
2018-02-20T11:32:21.799Z,2.90
2018-02-20T11:34:49.244Z,2.90
2018-02-20T11:37:16.701Z,2.80
2018-02-20T11:39:44.165Z,2.80
2018-02-20T11:42:11.625Z,2.70
2018-02-20T11:44:39.084Z,2.70
2018-02-20T11:47:06.545Z,2.70
2018-02-20T11:49:34.006Z,2.70
2018-02-20T11:52:01.466Z,2.70
2018-02-20T11:54:28.921Z,2.70
2018-02-20T11:56:57.166Z,2.70
2018-02-20T11:59:24.622Z,2.70
2018-02-20T12:01:52.073Z,2.70
2018-02-20T12:04:19.533Z,2.70
2018-02-20T12:06:46.986Z,2.70
2018-02-20T12:09:14.445Z,2.80
2018-02-20T12:11:41.897Z,2.80
2018-02-20T12:14:09.359Z,2.80
2018-02-20T12:16:36.842Z,2.80
2018-02-20T12:19:04.274Z,2.90
2018-02-20T12:21:31.724Z,2.90
2018-02-20T12:23:59.185Z,3.00
2018-02-20T12:26:26.638Z,2.90
2018-02-20T12:28:54.098Z,2.90
2018-02-20T12:31:21.550Z,2.90
2018-02-20T12:33:49.006Z,2.90
2018-02-20T12:36:16.474Z,2.90
2018-02-20T12:38:43.930Z,2.80
2018-02-20T12:41:11.381Z,2.80
2018-02-20T12:43:38.860Z,2.70
2018-02-20T12:46:06.307Z,2.70
2018-02-20T12:48:33.773Z,2.60
2018-02-20T12:51:01.225Z,2.60
2018-02-20T12:53:28.718Z,2.60
2018-02-20T12:55:56.149Z,2.60
2018-02-20T12:58:23.606Z,2.60
2018-02-20T13:00:51.061Z,2.60
2018-02-20T13:03:19.404Z,2.60
2018-02-20T13:05:47.622Z,2.60
2018-02-20T13:08:15.077Z,2.60
2018-02-20T13:10:42.524Z,2.70
2018-02-20T13:13:10.001Z,2.70
2018-02-20T13:15:37.460Z,2.60
2018-02-20T13:18:04.920Z,2.60
2018-02-20T13:20:32.377Z,2.70
2018-02-20T13:22:59.830Z,2.70
2018-02-20T13:25:27.300Z,2.70
2018-02-20T13:27:54.747Z,2.80
2018-02-20T13:30:22.205Z,2.80
2018-02-20T13:32:49.653Z,2.70
2018-02-20T13:35:17.109Z,2.70
2018-02-20T13:37:44.566Z,2.70
2018-02-20T13:40:12.022Z,2.70
2018-02-20T13:42:39.476Z,2.70
2018-02-20T13:45:06.936Z,2.70
2018-02-20T13:47:34.393Z,2.70
2018-02-20T13:50:01.845Z,2.70
2018-02-20T13:52:29.306Z,2.70
2018-02-20T13:54:56.761Z,2.70
2018-02-20T13:57:24.213Z,2.70
2018-02-20T13:59:51.669Z,2.70
2018-02-20T14:02:19.125Z,2.70
2018-02-20T14:04:46.623Z,2.70
2018-02-20T14:07:14.046Z,2.80
2018-02-20T14:09:41.505Z,2.80
2018-02-20T14:12:08.952Z,2.80
2018-02-20T14:14:36.408Z,2.90
2018-02-20T14:17:03.877Z,2.90
2018-02-20T14:19:31.349Z,2.90
2018-02-20T14:21:58.789Z,2.90
2018-02-20T14:24:26.278Z,2.90
2018-02-20T14:26:54.505Z,2.90
2018-02-20T14:29:21.967Z,2.90
2018-02-20T14:31:49.425Z,2.90
2018-02-20T14:34:16.887Z,2.90
2018-02-20T14:36:44.344Z,2.90
2018-02-20T14:39:11.803Z,3.00
2018-02-20T14:41:39.969Z,3.00
2018-02-20T14:44:07.437Z,3.00
2018-02-20T14:46:34.889Z,3.00
2018-02-20T14:49:02.341Z,3.10
2018-02-20T14:51:29.801Z,3.10
2018-02-20T14:53:57.254Z,3.10
2018-02-20T14:56:24.740Z,3.20
2018-02-20T14:58:52.185Z,3.20
2018-02-20T15:01:21.233Z,3.20
2018-02-20T15:03:48.685Z,3.20
2018-02-20T15:06:16.141Z,3.20
2018-02-20T15:08:43.590Z,3.20
2018-02-20T15:11:11.053Z,3.20
2018-02-20T15:13:38.518Z,3.20
2018-02-20T15:16:05.969Z,3.10
2018-02-20T15:18:33.429Z,3.10
2018-02-20T15:21:00.898Z,3.00
2018-02-20T15:23:28.350Z,3.00
2018-02-20T15:25:55.810Z,3.00
2018-02-20T15:28:23.260Z,2.90
2018-02-20T15:30:50.721Z,2.90
2018-02-20T15:33:18.178Z,2.90
2018-02-20T15:35:45.629Z,2.80
2018-02-20T15:38:13.081Z,2.80
2018-02-20T15:40:40.545Z,2.80
2018-02-20T15:43:07.997Z,2.70
2018-02-20T15:45:35.458Z,2.70
2018-02-20T15:48:02.917Z,2.70
2018-02-20T15:50:30.375Z,2.70
2018-02-20T15:52:57.821Z,2.70
2018-02-20T15:55:25.282Z,2.70
2018-02-20T15:57:52.737Z,2.70
2018-02-20T16:00:20.202Z,2.60
2018-02-20T16:05:22.298Z,2.60
2018-02-20T16:07:49.738Z,2.60
2018-02-20T16:10:17.973Z,2.60
2018-02-20T16:12:46.185Z,2.60
2018-02-20T16:15:13.646Z,2.60
2018-02-20T16:17:41.097Z,2.50
2018-02-20T16:20:08.555Z,2.50
2018-02-20T16:22:36.005Z,2.50
2018-02-20T16:25:03.465Z,2.50
2018-02-20T16:27:30.931Z,2.50
2018-02-20T16:29:58.398Z,2.50
2018-02-20T16:32:25.852Z,2.50
2018-02-20T16:34:53.305Z,2.50
2018-02-20T16:37:20.765Z,2.40
2018-02-20T16:39:48.227Z,2.50
2018-02-20T16:42:15.742Z,2.40
2018-02-20T16:44:43.193Z,2.40
2018-02-20T16:47:10.661Z,2.40
2018-02-20T16:49:38.106Z,2.40
2018-02-20T16:52:05.781Z,2.40
2018-02-20T16:54:33.255Z,2.40
2018-02-20T16:57:00.742Z,2.30
2018-02-20T16:59:28.978Z,2.30
2018-02-20T17:01:57.539Z,2.20
2018-02-20T17:04:24.985Z,2.30
2018-02-20T17:06:52.482Z,2.30
2018-02-20T17:09:19.941Z,2.20
2018-02-20T17:11:47.404Z,2.20
2018-02-20T17:14:14.853Z,2.20
2018-02-20T17:16:42.322Z,2.20
2018-02-20T17:19:09.774Z,2.20
2018-02-20T17:21:37.316Z,2.20
2018-02-20T17:24:04.677Z,2.10
2018-02-20T17:26:32.145Z,2.10
2018-02-20T17:29:00.371Z,2.10
2018-02-20T17:31:28.593Z,2.10
2018-02-20T17:33:56.433Z,2.10
2018-02-20T17:36:23.886Z,2.10
2018-02-20T17:38:51.342Z,2.00
2018-02-20T17:41:18.808Z,2.00
2018-02-20T17:43:46.293Z,2.00
2018-02-20T17:46:13.757Z,2.00
2018-02-20T17:48:41.209Z,1.90
2018-02-20T17:51:08.671Z,1.90
2018-02-20T17:53:36.138Z,1.90
2018-02-20T17:56:03.594Z,1.90
2018-02-20T17:58:31.061Z,1.80
2018-02-20T18:00:58.524Z,1.80
2018-02-20T18:03:26.746Z,1.80
2018-02-20T18:05:54.214Z,1.70
2018-02-20T18:08:21.678Z,1.70
2018-02-20T18:10:49.122Z,1.70
2018-02-20T18:13:17.347Z,1.60
2018-02-20T18:15:45.578Z,1.50
2018-02-20T18:18:13.042Z,1.50
2018-02-20T18:20:40.505Z,1.40
2018-02-20T18:23:07.961Z,1.40
2018-02-20T18:25:35.478Z,1.40
2018-02-20T18:28:02.926Z,1.40
2018-02-20T18:30:30.382Z,1.40
2018-02-20T18:32:57.839Z,1.40
2018-02-20T18:35:25.293Z,1.40
2018-02-20T18:37:52.759Z,1.40
2018-02-20T18:40:20.216Z,1.40
2018-02-20T18:42:47.677Z,1.40
2018-02-20T18:45:15.135Z,1.40
2018-02-20T18:47:42.588Z,1.40
2018-02-20T18:50:10.049Z,1.40
2018-02-20T18:52:37.517Z,1.50
2018-02-20T18:55:04.961Z,1.40
2018-02-20T18:57:32.418Z,1.40
2018-02-20T18:59:59.877Z,1.40
2018-02-20T19:02:27.346Z,1.40
2018-02-20T19:04:54.809Z,1.30
2018-02-20T19:07:22.266Z,1.30
2018-02-20T19:09:49.736Z,1.30
2018-02-20T19:12:17.193Z,1.30
2018-02-20T19:14:44.654Z,1.30
2018-02-20T19:17:12.109Z,1.20
2018-02-20T19:19:39.569Z,1.20
2018-02-20T19:22:07.814Z,1.20
2018-02-20T19:24:35.311Z,1.20
2018-02-20T19:27:02.761Z,1.20
2018-02-20T19:29:30.226Z,1.20
2018-02-20T19:31:57.694Z,1.20
2018-02-20T19:34:26.000Z,1.20
2018-02-20T19:36:53.457Z,1.20
2018-02-20T19:39:21.429Z,1.20
2018-02-20T19:41:48.889Z,1.20
2018-02-20T19:44:16.346Z,1.10
2018-02-20T19:46:43.802Z,1.10
2018-02-20T19:49:11.274Z,1.10
2018-02-20T19:51:38.769Z,1.20
2018-02-20T19:54:06.243Z,1.20
2018-02-20T19:56:34.460Z,1.20
2018-02-20T19:59:01.926Z,1.30
2018-02-20T20:01:29.678Z,1.30
2018-02-20T20:03:57.129Z,1.30
2018-02-20T20:06:24.579Z,1.30
2018-02-20T20:08:52.061Z,1.30
2018-02-20T20:11:20.002Z,1.30
2018-02-20T20:13:47.457Z,1.30
2018-02-20T20:16:14.940Z,1.30
2018-02-20T20:18:42.418Z,1.30
2018-02-20T20:21:09.877Z,1.30
2018-02-20T20:23:37.361Z,1.30
2018-02-20T20:26:04.822Z,1.30
2018-02-20T20:28:32.293Z,1.30
2018-02-20T20:30:59.745Z,1.30
2018-02-20T20:33:27.215Z,1.30
2018-02-20T20:35:54.674Z,1.30
2018-02-20T20:38:22.136Z,1.30
2018-02-20T20:40:49.586Z,1.30
2018-02-20T20:43:17.041Z,1.30
2018-02-20T20:45:44.501Z,1.30
2018-02-20T20:48:11.965Z,1.30
2018-02-20T20:50:39.423Z,1.30
2018-02-20T20:53:07.897Z,1.30
2018-02-20T20:55:35.357Z,1.40
2018-02-20T20:58:02.840Z,1.40
2018-02-20T21:00:30.301Z,1.40
2018-02-20T21:02:57.774Z,1.40
2018-02-20T21:05:25.282Z,1.40
2018-02-20T21:07:52.739Z,1.40
2018-02-20T21:10:20.191Z,1.40
2018-02-20T21:12:47.652Z,1.40
2018-02-20T21:15:15.120Z,1.40
2018-02-20T21:17:42.569Z,1.30
2018-02-20T21:20:10.035Z,1.30
2018-02-20T21:22:37.492Z,1.30
2018-02-20T21:25:04.953Z,1.30
2018-02-20T21:27:32.425Z,1.30
2018-02-20T21:29:59.893Z,1.20
2018-02-20T21:32:27.357Z,1.20
2018-02-20T21:34:54.813Z,1.20
2018-02-20T21:37:23.050Z,1.20
2018-02-20T21:39:50.523Z,1.20
2018-02-20T21:42:17.986Z,1.20
2018-02-20T21:44:45.442Z,1.20
2018-02-20T21:47:12.898Z,1.20
2018-02-20T21:49:40.355Z,1.20
2018-02-20T21:52:07.817Z,1.10
2018-02-20T21:54:35.290Z,1.10
2018-02-20T21:57:03.508Z,1.10
2018-02-20T21:59:31.057Z,1.10
2018-02-20T22:01:58.506Z,1.10
2018-02-20T22:04:26.176Z,1.10
2018-02-20T22:06:53.621Z,1.10
2018-02-20T22:09:21.098Z,1.10
2018-02-20T22:11:48.696Z,1.10
2018-02-20T22:14:16.138Z,1.00
2018-02-20T22:16:43.586Z,1.00
2018-02-20T22:19:11.059Z,1.10
2018-02-20T22:21:38.879Z,1.00
2018-02-20T22:24:06.338Z,1.10
2018-02-20T22:26:33.821Z,1.10
2018-02-20T22:29:01.282Z,1.00
2018-02-20T22:31:28.744Z,1.10
2018-02-20T22:33:56.225Z,1.00
2018-02-20T22:36:23.677Z,1.10
2018-02-20T22:38:51.137Z,1.10
2018-02-20T22:41:18.593Z,1.10
2018-02-20T22:43:46.053Z,1.00
2018-02-20T22:46:13.514Z,1.10
2018-02-20T22:48:41.747Z,1.10
2018-02-20T22:51:09.201Z,1.10
2018-02-20T22:53:36.674Z,1.10
2018-02-20T22:56:04.134Z,1.10
2018-02-20T22:58:31.589Z,1.10
2018-02-20T23:00:59.044Z,1.00
2018-02-20T23:03:26.505Z,1.10
2018-02-20T23:05:53.990Z,1.10
2018-02-20T23:08:22.225Z,1.10
2018-02-20T23:10:49.686Z,1.00
2018-02-20T23:13:17.140Z,1.00
2018-02-20T23:15:44.597Z,1.10
2018-02-20T23:18:12.054Z,1.00
2018-02-20T23:20:39.513Z,1.00
2018-02-20T23:23:06.974Z,1.00
2018-02-20T23:25:34.442Z,1.10
2018-02-20T23:28:01.939Z,1.10
2018-02-20T23:30:29.775Z,1.10
2018-02-20T23:32:57.225Z,1.10
2018-02-20T23:35:24.687Z,1.10
2018-02-20T23:37:52.145Z,1.10
2018-02-20T23:40:20.381Z,1.10
2018-02-20T23:42:47.837Z,1.00
2018-02-20T23:45:15.324Z,1.00
2018-02-20T23:47:42.780Z,1.00
2018-02-20T23:50:10.249Z,1.00
2018-02-20T23:52:37.717Z,1.00
2018-02-20T23:55:05.942Z,1.00
2018-02-20T23:57:33.397Z,1.00
